Time;durP1;ratioP1;P1;durP2;ratioP2;P2;SDS_P1;SDS_P2;PMS_P1;PMS_P2;Temp;Humidity;BMP_temperature;BMP_pressure;BME280_temperature;BME280_humidity;BME280_pressure;Samples;Min_cycle;Max_cycle;Signal;HPM_P1;HPM_P2
2022/10/29 00:02:12;;;;;;;15.88;10.50;;;;;;;16.46;75.21;102055.94;5058908;28;20044;-75
2022/10/29 00:04:37;;;;;;;19.23;11.05;;;;;;;16.47;75.33;102052.03;5054280;28;20388;-75
2022/10/29 00:07:02;;;;;;;21.67;11.73;;;;;;;16.43;74.98;102045.28;5046286;28;20022;-75
2022/10/29 00:09:28;;;;;;;19.85;11.98;;;;;;;16.43;75.09;102039.66;5034814;28;20029;-75
2022/10/29 00:11:53;;;;;;;18.90;11.30;;;;;;;16.41;74.84;102044.66;5044028;28;20039;-75
2022/10/29 00:14:18;;;;;;;24.17;12.55;;;;;;;16.37;74.50;102033.16;5039280;28;20083;-75
2022/10/29 00:16:44;;;;;;;24.23;12.13;;;;;;;16.37;74.73;102030.34;5048416;28;20056;-75
2022/10/29 00:19:18;;;;;;;18.17;11.15;;;;;;;16.33;74.46;102031.97;5067445;28;20036;-75
2022/10/29 00:21:43;;;;;;;20.17;10.77;;;;;;;16.31;74.53;102041.75;5042669;28;20477;-75
2022/10/29 00:24:09;;;;;;;25.15;11.25;;;;;;;16.30;74.59;102045.66;5047629;28;20036;-75
2022/10/29 00:26:34;;;;;;;20.60;10.93;;;;;;;16.26;74.41;102034.13;5046263;28;20354;-75
2022/10/29 00:29:00;;;;;;;20.80;11.18;;;;;;;16.24;73.89;102035.53;5042183;28;20116;-75
2022/10/29 00:31:25;;;;;;;17.75;9.85;;;;;;;16.22;74.38;102046.13;5056249;28;20380;-75
2022/10/29 00:33:53;;;;;;;17.98;9.65;;;;;;;16.17;74.36;102049.72;5044635;28;20082;-74
2022/10/29 00:36:21;;;;;;;15.43;9.63;;;;;;;16.16;74.86;102053.63;5044117;28;20033;-74
2022/10/29 00:38:47;;;;;;;15.25;9.07;;;;;;;16.16;74.60;102048.03;5055336;28;20060;-74
2022/10/29 00:41:15;;;;;;;19.33;9.13;;;;;;;16.10;74.70;102047.13;5051992;28;20086;-74
2022/10/29 00:43:46;;;;;;;15.15;9.48;;;;;;;16.13;74.76;102038.19;5045047;28;20021;-75
2022/10/29 00:46:16;;;;;;;16.52;9.68;;;;;;;16.11;74.94;102048.84;5044218;28;20033;-75
2022/10/29 00:48:45;;;;;;;15.35;9.18;;;;;;;16.10;74.62;102057.47;5052942;28;20033;-75
2022/10/29 00:51:13;;;;;;;17.48;9.43;;;;;;;16.12;74.78;102060.88;5044344;28;20416;-75
2022/10/29 00:53:43;;;;;;;20.73;10.00;;;;;;;16.09;74.97;102059.44;5051215;28;20029;-74
2022/10/29 00:56:10;;;;;;;18.80;9.43;;;;;;;16.07;75.04;102057.97;5052965;28;20037;-74
2022/10/29 00:58:35;;;;;;;15.90;9.48;;;;;;;16.08;75.09;102049.34;5047348;28;20488;-74
2022/10/29 01:01:01;;;;;;;26.00;9.93;;;;;;;16.09;75.01;102058.59;5040947;28;20048;-75
2022/10/29 01:03:26;;;;;;;13.88;8.75;;;;;;;16.08;74.52;102054.09;5048197;28;20071;-75
2022/10/29 01:05:52;;;;;;;19.15;9.70;;;;;;;16.05;74.52;102051.81;5053057;28;20025;-75
2022/10/29 01:08:19;;;;;;;21.17;9.63;;;;;;;16.03;74.59;102048.41;5053737;28;20024;-74
2022/10/29 01:11:11;;;;;;;13.10;8.50;;;;;;;16.03;74.48;102051.22;5052864;28;20043;-74
2022/10/29 01:13:56;;;;;;;;;;;;;;;16.19;73.94;102039.97;5052994;28;20115;-74
2022/10/29 01:16:27;;;;;;;20.00;9.73;;;;;;;16.01;73.83;102036.66;5051762;28;20007;-75
2022/10/29 01:19:33;;;;;;;13.57;8.60;;;;;;;16.02;73.83;102027.13;5033580;28;20384;-74
2022/10/29 01:22:09;;;;;;;13.45;8.93;;;;;;;15.92;73.56;102028.69;5048296;28;20028;-74
2022/10/29 01:25:27;;;;;;;20.75;9.68;;;;;;;16.00;73.88;102023.75;5065667;28;20120;-75
2022/10/29 01:28:16;;;;;;;17.55;9.32;;;;;;;15.94;74.02;102026.47;5051397;28;20041;-74
2022/10/29 01:31:12;;;;;;;16.85;8.70;;;;;;;15.95;73.82;102031.00;5036007;28;20611;-75
2022/10/29 01:34:05;;;;;;;15.63;8.90;;;;;;;15.91;73.75;102031.75;5047370;28;20159;-74
2022/10/29 01:36:35;;;;;;;;;;;;;;;16.05;73.46;102018.22;5051887;28;20072;-74
2022/10/29 01:39:06;;;;;;;22.40;10.25;;;;;;;15.88;73.70;102021.09;5066086;28;19968;-74
2022/10/29 01:41:50;;;;;;;18.13;9.20;;;;;;;15.84;73.45;102020.75;5051168;28;20033;-74
2022/10/29 01:44:47;;;;;;;18.70;9.60;;;;;;;15.81;74.04;102014.84;5049134;28;20033;-75
2022/10/29 01:47:20;;;;;;;19.42;9.75;;;;;;;15.78;73.68;102006.94;5050765;28;20136;-75
2022/10/29 01:49:52;;;;;;;14.82;9.65;;;;;;;15.70;73.65;101995.09;5033908;28;20385;-75
2022/10/29 01:52:19;;;;;;;;;;;;;;;15.90;73.44;101993.66;5044440;28;20044;-75
2022/10/29 01:54:46;;;;;;;19.52;9.35;;;;;;;15.67;73.28;101991.97;5052637;28;19970;-75
2022/10/29 01:57:24;;;;;;;17.23;9.82;;;;;;;15.67;73.50;101986.38;5049214;28;20044;-75
2022/10/29 01:59:50;;;;;;;14.70;8.95;;;;;;;15.64;72.90;101984.03;5043059;28;20507;-75
2022/10/29 02:02:29;;;;;;;17.67;9.32;;;;;;;15.62;73.39;101992.72;5031895;28;20033;-75
2022/10/29 02:05:05;;;;;;;19.58;9.60;;;;;;;15.58;73.12;101987.91;5040027;28;20029;-75
2022/10/29 02:07:39;;;;;;;17.17;9.18;;;;;;;15.57;73.42;101989.00;5051733;28;20465;-75
2022/10/29 02:10:17;;;;;;;15.88;9.43;;;;;;;15.55;73.51;101988.41;5051083;28;20468;-75
2022/10/29 02:12:49;;;;;;;19.83;9.60;;;;;;;15.50;73.30;101991.16;5041747;28;20033;-74
2022/10/29 02:15:18;;;;;;;14.68;9.80;;;;;;;15.46;73.42;101986.06;5031546;28;20026;-75
2022/10/29 02:17:43;;;;;;;16.25;9.40;;;;;;;15.47;73.08;101979.34;5040767;28;20033;-74
2022/10/29 02:20:11;;;;;;;16.33;9.57;;;;;;;15.44;73.17;101968.69;5035384;28;20047;-74
2022/10/29 02:22:36;;;;;;;19.23;10.18;;;;;;;15.43;73.43;101974.53;5054224;28;20028;-74
2022/10/29 02:25:03;;;;;;;20.10;9.43;;;;;;;15.42;73.39;101979.28;5031098;28;20025;-74
2022/10/29 02:27:28;;;;;;;18.92;10.18;;;;;;;15.39;73.58;101968.59;5043576;28;20029;-75
2022/10/29 02:29:54;;;;;;;15.32;9.50;;;;;;;15.42;73.41;101965.31;5031656;28;20041;-75
2022/10/29 02:32:19;;;;;;;18.73;9.77;;;;;;;15.37;73.12;101962.44;5031669;28;20044;-75
2022/10/29 02:34:44;;;;;;;17.08;9.80;;;;;;;15.40;73.11;101970.28;5046773;28;20550;-75
2022/10/29 02:37:09;;;;;;;12.85;9.68;;;;;;;15.37;73.14;101948.44;5052794;28;20041;-74
2022/10/29 02:39:35;;;;;;;14.30;9.88;;;;;;;15.37;73.56;101944.81;5063076;28;20808;-74
2022/10/29 02:42:00;;;;;;;16.73;9.88;;;;;;;15.37;73.33;101951.25;5054730;28;20033;-74
2022/10/29 02:44:25;;;;;;;16.02;10.65;;;;;;;15.38;73.24;101952.94;5046378;28;20040;-74
2022/10/29 02:46:51;;;;;;;14.88;10.82;;;;;;;15.35;73.55;101952.59;5041303;28;20045;-74
2022/10/29 02:49:16;;;;;;;15.82;10.25;;;;;;;15.34;73.55;101948.97;5053646;28;20058;-75
2022/10/29 02:51:41;;;;;;;21.90;11.15;;;;;;;15.30;73.80;101947.78;5047243;28;20068;-74
2022/10/29 02:54:06;;;;;;;16.50;9.88;;;;;;;15.29;73.94;101953.63;5031153;28;20477;-75
2022/10/29 02:56:32;;;;;;;23.70;10.82;;;;;;;15.28;73.82;101949.97;5036497;28;20032;-75
2022/10/29 02:58:57;;;;;;;18.58;10.77;;;;;;;15.26;73.79;101951.38;5033678;28;20041;-75
2022/10/29 03:01:23;;;;;;;19.48;10.70;;;;;;;15.27;73.56;101948.28;5053450;28;20025;-75
2022/10/29 03:03:48;;;;;;;17.48;10.55;;;;;;;15.24;73.16;101943.22;5037550;28;20557;-75
2022/10/29 03:06:15;;;;;;;19.40;9.82;;;;;;;15.21;73.66;101940.97;5049857;28;20035;-75
2022/10/29 03:08:41;;;;;;;19.38;10.82;;;;;;;15.23;73.62;101935.94;5042221;28;20053;-75
2022/10/29 03:11:06;;;;;;;18.70;11.20;;;;;;;15.20;73.89;101937.28;5044615;28;20060;-75
2022/10/29 03:13:32;;;;;;;20.48;10.88;;;;;;;15.20;73.66;101933.66;5032745;28;20095;-74
2022/10/29 03:15:57;;;;;;;17.42;11.60;;;;;;;15.18;73.57;101935.88;5051159;28;20357;-75
2022/10/29 03:18:22;;;;;;;21.27;10.90;;;;;;;15.14;73.65;101932.75;5053419;28;20037;-74
2022/10/29 03:20:47;;;;;;;17.33;10.40;;;;;;;15.16;73.51;101926.88;5060709;28;20025;-74
2022/10/29 03:23:13;;;;;;;17.60;11.45;;;;;;;15.14;73.21;101929.94;5050674;28;20480;-74
2022/10/29 03:25:38;;;;;;;17.92;11.50;;;;;;;15.14;73.32;101931.91;5049400;28;20037;-75
2022/10/29 03:28:04;;;;;;;15.05;10.93;;;;;;;15.12;73.48;101928.50;5050443;28;20029;-75
2022/10/29 03:30:29;;;;;;;17.55;10.85;;;;;;;15.12;73.83;101925.69;5052149;28;20116;-75
2022/10/29 03:32:54;;;;;;;16.63;11.00;;;;;;;15.10;73.80;101913.94;5054904;28;20041;-75
2022/10/29 03:35:20;;;;;;;14.18;10.32;;;;;;;15.12;73.58;101918.16;5053028;28;20409;-75
2022/10/29 03:37:49;;;;;;;19.20;11.52;;;;;;;15.08;73.91;101918.94;5043618;28;20468;-73
2022/10/29 03:40:14;;;;;;;20.20;10.43;;;;;;;15.09;74.05;101912.22;5040815;28;20028;-74
2022/10/29 03:42:40;;;;;;;17.70;11.07;;;;;;;15.08;74.32;101904.94;5049785;28;20024;-74
2022/10/29 03:45:05;;;;;;;20.83;10.43;;;;;;;15.07;74.06;101904.09;5053306;28;20036;-74
2022/10/29 03:47:32;;;;;;;16.60;10.30;;;;;;;15.04;74.31;101909.38;5047717;28;20094;-75
2022/10/29 03:49:58;;;;;;;19.02;9.32;;;;;;;15.05;74.19;101902.66;5037611;28;20028;-74
2022/10/29 03:52:23;;;;;;;19.15;11.20;;;;;;;15.09;74.38;101915.03;5054266;28;20033;-74
2022/10/29 03:54:48;;;;;;;15.73;10.38;;;;;;;15.07;74.70;101904.09;5053529;28;20021;-74
2022/10/29 03:57:13;;;;;;;19.70;11.15;;;;;;;15.04;74.71;101898.19;5060944;28;20030;-75
2022/10/29 03:59:39;;;;;;;16.23;10.55;;;;;;;15.07;74.83;101892.09;5075289;28;20028;-75
2022/10/29 04:02:04;;;;;;;21.58;11.05;;;;;;;15.08;74.76;101890.97;5074977;28;20032;-75
2022/10/29 04:04:29;;;;;;;18.38;10.95;;;;;;;15.10;74.99;101872.00;5066968;28;20040;-75
2022/10/29 04:06:55;;;;;;;18.35;10.75;;;;;;;15.03;75.00;101880.56;5052652;28;20515;-75
2022/10/29 04:09:20;;;;;;;15.85;10.60;;;;;;;15.05;74.98;101875.56;5034805;28;20083;-75
2022/10/29 04:11:45;;;;;;;16.42;10.10;;;;;;;15.04;74.91;101873.03;5049092;28;20024;-75
2022/10/29 04:14:10;;;;;;;17.63;10.20;;;;;;;15.02;74.82;101876.09;5064661;28;20054;-74
2022/10/29 04:16:36;;;;;;;28.55;10.55;;;;;;;15.04;74.44;101878.63;5065085;28;20025;-74
2022/10/29 04:19:02;;;;;;;14.70;10.32;;;;;;;15.01;74.69;101874.38;5053091;28;20388;-75
2022/10/29 04:21:27;;;;;;;16.58;9.98;;;;;;;15.02;75.16;101866.84;5034662;28;20739;-75
2022/10/29 04:23:52;;;;;;;16.25;10.38;;;;;;;15.01;74.87;101865.97;5041950;28;20392;-74
2022/10/29 04:26:18;;;;;;;17.13;10.50;;;;;;;14.98;75.19;101861.78;5040194;28;20043;-75
2022/10/29 04:28:47;;;;;;;14.77;10.10;;;;;;;14.97;75.38;101867.59;5073869;28;20031;-74
2022/10/29 04:31:12;;;;;;;17.80;10.18;;;;;;;15.02;75.33;101866.84;5049057;28;20033;-75
2022/10/29 04:33:38;;;;;;;15.77;10.63;;;;;;;15.01;75.51;101857.59;5038130;28;20053;-73
2022/10/29 04:36:03;;;;;;;15.45;10.32;;;;;;;15.01;75.57;101856.75;5044326;28;20443;-74
2022/10/29 04:38:29;;;;;;;17.98;9.75;;;;;;;14.98;75.45;101845.00;5048729;28;20041;-74
2022/10/29 04:41:00;;;;;;;16.48;9.88;;;;;;;15.00;75.44;101855.06;5048540;28;20443;-74
2022/10/29 04:43:27;;;;;;;16.77;10.10;;;;;;;15.00;75.15;101855.91;5050065;28;20024;-74
2022/10/29 04:45:53;;;;;;;17.55;10.32;;;;;;;14.98;75.25;101867.38;5042621;28;20427;-74
2022/10/29 04:48:19;;;;;;;17.27;10.27;;;;;;;14.95;75.22;101862.28;5051148;28;20090;-74
2022/10/29 04:50:45;;;;;;;17.10;10.23;;;;;;;14.92;75.17;101865.59;5040198;28;20021;-74
2022/10/29 04:53:10;;;;;;;16.08;10.07;;;;;;;14.95;75.37;101861.44;5052303;28;20067;-74
2022/10/29 04:55:37;;;;;;;17.95;10.90;;;;;;;14.94;75.60;101865.34;5049927;28;20020;-74
2022/10/29 04:58:06;;;;;;;18.33;11.13;;;;;;;14.96;75.85;101866.75;5043241;28;20064;-74
2022/10/29 05:00:31;;;;;;;25.13;12.73;;;;;;;14.98;75.80;101852.53;5049447;28;20020;-78
2022/10/29 05:02:57;;;;;;;19.88;12.23;;;;;;;15.00;75.73;101846.69;5054149;28;20392;-77
2022/10/29 05:05:22;;;;;;;21.42;11.73;;;;;;;15.04;75.99;101850.66;5047296;28;20024;-76
2022/10/29 05:07:47;;;;;;;19.55;10.95;;;;;;;15.04;76.09;101857.09;5047282;28;20025;-72
2022/10/29 05:10:13;;;;;;;21.20;12.10;;;;;;;15.03;75.85;101849.81;5041862;28;20119;-73
2022/10/29 05:12:39;;;;;;;22.15;11.65;;;;;;;15.02;76.13;101850.09;5065326;28;20115;-73
2022/10/29 05:15:05;;;;;;;17.88;11.10;;;;;;;15.01;75.63;101851.16;5032669;28;20041;-69
2022/10/29 05:17:30;;;;;;;18.77;11.25;;;;;;;15.00;75.84;101847.53;5037206;28;20033;-69
2022/10/29 05:19:56;;;;;;;17.85;11.23;;;;;;;14.97;75.34;101843.31;5033832;28;20031;-71
2022/10/29 05:22:21;;;;;;;21.05;11.43;;;;;;;14.95;75.50;101833.47;5032616;28;20037;-69
2022/10/29 05:24:46;;;;;;;22.58;11.30;;;;;;;14.98;75.74;101845.00;5032605;28;20036;-71
2022/10/29 05:27:12;;;;;;;19.92;11.52;;;;;;;14.94;75.76;101835.44;5043271;28;20494;-72
2022/10/29 05:29:37;;;;;;;21.10;11.93;;;;;;;14.95;76.09;101836.28;5052058;28;20025;-69
2022/10/29 05:32:02;;;;;;;18.05;11.27;;;;;;;14.96;75.96;101833.22;5044817;28;20017;-70
2022/10/29 05:34:28;;;;;;;26.02;12.85;;;;;;;14.96;76.03;101836.00;5051879;28;20463;-68
2022/10/29 05:36:53;;;;;;;20.67;11.88;;;;;;;14.97;76.32;101823.75;5037265;28;20017;-69
2022/10/29 05:39:18;;;;;;;23.65;12.00;;;;;;;14.95;76.42;101823.16;5034858;28;20373;-71
2022/10/29 05:41:44;;;;;;;19.52;11.45;;;;;;;14.96;76.64;101832.38;5032103;28;20017;-70
2022/10/29 05:44:10;;;;;;;18.60;11.88;;;;;;;14.96;76.64;101824.81;5032799;28;20490;-74
2022/10/29 05:46:35;;;;;;;21.50;12.65;;;;;;;14.98;76.82;101822.63;5037371;28;20029;-75
2022/10/29 05:49:00;;;;;;;17.83;12.93;;;;;;;14.98;76.98;101816.19;5035185;28;20188;-75
2022/10/29 05:51:26;;;;;;;22.10;12.88;;;;;;;14.96;77.15;101813.66;5032840;28;20040;-75
2022/10/29 05:53:51;;;;;;;25.10;12.98;;;;;;;14.97;77.06;101814.50;5033524;28;20041;-74
2022/10/29 05:56:16;;;;;;;24.17;12.77;;;;;;;14.97;77.05;101809.75;5030158;28;20080;-74
2022/10/29 05:58:42;;;;;;;21.02;12.70;;;;;;;15.00;77.07;101813.13;5039614;28;20087;-75
2022/10/29 06:01:08;;;;;;;29.40;14.27;;;;;;;15.03;77.50;101815.41;5034075;28;20034;-74
2022/10/29 06:03:34;;;;;;;23.77;14.00;;;;;;;15.02;77.50;101805.34;5044453;28;20039;-75
2022/10/29 06:06:00;;;;;;;25.88;13.48;;;;;;;15.04;77.52;101808.72;5035341;28;20034;-75
2022/10/29 06:08:25;;;;;;;21.50;13.13;;;;;;;15.04;77.73;101803.97;5032712;28;20082;-74
2022/10/29 06:10:53;;;;;;;25.33;14.00;;;;;;;15.06;77.77;101812.09;5031480;28;20133;-75
2022/10/29 06:13:20;;;;;;;28.13;14.23;;;;;;;15.03;78.68;101813.47;5066183;28;20033;-74
2022/10/29 06:15:47;;;;;;;25.95;14.60;;;;;;;15.06;78.40;101820.50;5072395;28;20488;-75
2022/10/29 06:18:13;;;;;;;23.10;14.18;;;;;;;15.07;78.58;101841.75;5068025;28;20055;-75
2022/10/29 06:20:39;;;;;;;25.65;14.15;;;;;;;15.05;78.68;101832.75;5069548;28;20086;-74
2022/10/29 06:23:04;;;;;;;28.17;14.18;;;;;;;15.07;78.63;101824.97;5036470;28;20029;-75
2022/10/29 06:25:30;;;;;;;23.48;14.50;;;;;;;15.07;78.35;101831.41;5047911;28;20424;-75
2022/10/29 06:28:00;;;;;;;22.25;14.35;;;;;;;15.09;78.73;101839.53;5048691;28;20025;-74
2022/10/29 06:30:26;;;;;;;26.73;13.65;;;;;;;15.11;79.23;101834.53;5051316;28;20028;-74
2022/10/29 06:32:51;;;;;;;26.20;15.20;;;;;;;15.12;79.34;101831.47;5066097;28;20189;-74
2022/10/29 06:35:17;;;;;;;27.73;14.70;;;;;;;15.15;79.36;101832.91;5066173;28;20080;-73
2022/10/29 06:37:42;;;;;;;26.05;14.55;;;;;;;15.15;79.34;101828.16;5051775;28;20071;-74
2022/10/29 06:40:08;;;;;;;22.67;14.15;;;;;;;15.17;79.27;101833.50;5050540;28;20029;-74
2022/10/29 06:42:33;;;;;;;27.00;15.27;;;;;;;15.14;79.27;101832.06;5055842;28;20029;-74
2022/10/29 06:44:58;;;;;;;24.85;14.65;;;;;;;15.16;79.36;101831.78;5071452;28;20023;-74
2022/10/29 06:47:23;;;;;;;24.98;14.57;;;;;;;15.16;79.19;101834.59;5065719;28;20033;-74
2022/10/29 06:49:49;;;;;;;29.42;14.70;;;;;;;15.14;79.11;101834.03;5051432;28;20017;-74
2022/10/29 06:52:14;;;;;;;23.25;14.40;;;;;;;15.14;79.00;101825.63;5050443;28;20028;-74
2022/10/29 06:54:39;;;;;;;23.45;14.20;;;;;;;15.10;78.86;101838.44;5052451;28;20033;-74
2022/10/29 06:57:05;;;;;;;29.33;14.50;;;;;;;15.13;78.98;101840.69;5053822;28;20475;-74
2022/10/29 06:59:30;;;;;;;23.27;13.38;;;;;;;15.13;79.00;101841.56;5071400;28;20070;-74
2022/10/29 07:01:55;;;;;;;25.02;14.63;;;;;;;15.13;79.11;101849.09;5075124;28;20036;-74
2022/10/29 07:04:21;;;;;;;27.77;14.50;;;;;;;15.14;78.87;101848.00;5075263;28;20223;-75
2022/10/29 07:06:46;;;;;;;24.45;14.40;;;;;;;15.14;79.19;101845.22;5075478;28;20043;-76
2022/10/29 07:09:11;;;;;;;22.58;13.23;;;;;;;15.15;79.13;101841.28;5073465;28;20111;-75
2022/10/29 07:11:37;;;;;;;24.90;14.18;;;;;;;15.16;79.54;101837.38;5051299;28;20037;-74
2022/10/29 07:14:04;;;;;;;28.42;14.77;;;;;;;15.18;79.68;101838.00;5051716;28;20552;-63
2022/10/29 07:16:30;;;;;;;25.50;14.52;;;;;;;15.18;79.83;101826.81;5051061;28;20025;-77
2022/10/29 07:18:55;;;;;;;24.98;14.57;;;;;;;15.20;79.53;101824.56;5053012;28;20055;-74
2022/10/29 07:21:20;;;;;;;28.23;14.80;;;;;;;15.20;79.69;101818.97;5053808;28;20025;-74
2022/10/29 07:23:45;;;;;;;31.38;15.10;;;;;;;15.23;79.73;101818.47;5045192;28;20025;-74
2022/10/29 07:26:11;;;;;;;26.48;14.82;;;;;;;15.23;79.71;101810.06;5048919;28;20108;-74
2022/10/29 07:28:36;;;;;;;23.98;14.35;;;;;;;15.24;80.11;101808.97;5040028;28;20048;-74
2022/10/29 07:31:01;;;;;;;26.48;14.90;;;;;;;15.27;79.87;101808.44;5051514;28;20036;-75
2022/10/29 07:33:29;;;;;;;25.15;15.38;;;;;;;15.28;80.03;101812.94;5053723;28;20036;-75
2022/10/29 07:35:57;;;;;;;26.27;13.48;;;;;;;15.30;79.77;101812.69;5045267;28;20060;-73
2022/10/29 07:38:22;;;;;;;29.38;14.10;;;;;;;15.30;80.19;101812.69;5048740;28;20044;-71
2022/10/29 07:40:49;;;;;;;22.17;13.32;;;;;;;15.32;79.98;101804.84;5052172;28;20033;-74
2022/10/29 07:43:15;;;;;;;25.27;15.18;;;;;;;15.32;80.25;101807.66;5035244;28;20025;-74
2022/10/29 07:45:43;;;;;;;23.90;14.52;;;;;;;15.33;80.22;101814.97;5042341;28;20484;-78
2022/10/29 07:48:08;;;;;;;24.92;12.95;;;;;;;15.38;80.24;101807.47;5070881;28;20033;-74
2022/10/29 07:50:35;;;;;;;22.77;13.27;;;;;;;15.40;80.28;101801.59;5052119;28;20491;-75
2022/10/29 07:53:01;;;;;;;27.20;14.45;;;;;;;15.41;80.19;101801.34;5055286;28;20033;-77
2022/10/29 07:55:27;;;;;;;28.15;14.23;;;;;;;15.44;80.12;101806.44;5053299;28;20099;-75
2022/10/29 07:57:57;;;;;;;25.35;14.45;;;;;;;15.41;80.19;101815.34;5052570;28;20074;-76
2022/10/29 08:00:24;;;;;;;19.60;13.70;;;;;;;15.44;80.13;101813.94;5066523;28;20112;-74
2022/10/29 08:02:56;;;;;;;24.90;13.60;;;;;;;15.45;80.20;101813.72;5035282;28;20096;-74
2022/10/29 08:05:23;;;;;;;24.13;14.38;;;;;;;15.49;80.28;101805.63;5047389;28;20037;-75
2022/10/29 08:07:49;;;;;;;29.08;14.32;;;;;;;15.54;80.39;101807.63;5053727;28;20029;-70
2022/10/29 08:10:15;;;;;;;22.95;14.40;;;;;;;15.57;80.10;101807.13;5037435;28;20107;-73
2022/10/29 08:12:50;;;;;;;30.52;15.20;;;;;;;15.59;80.74;101802.09;5055998;28;20369;-72
2022/10/29 08:15:15;;;;;;;26.58;14.40;;;;;;;15.63;80.53;101806.88;5042158;28;20029;-72
2022/10/29 08:17:41;;;;;;;26.85;14.40;;;;;;;15.65;80.62;101803.88;5047886;28;20052;-72
2022/10/29 08:20:07;;;;;;;23.27;14.00;;;;;;;15.66;81.09;101794.38;5054220;28;20111;-72
2022/10/29 08:22:32;;;;;;;28.20;14.35;;;;;;;15.69;80.70;101794.69;5053625;28;20060;-71
2022/10/29 08:24:57;;;;;;;31.40;14.20;;;;;;;15.72;80.86;101798.91;5039658;28;20034;-72
2022/10/29 08:27:23;;;;;;;26.60;14.18;;;;;;;15.74;80.99;101791.09;5034396;28;20040;-72
2022/10/29 08:29:48;;;;;;;26.25;14.73;;;;;;;15.76;80.90;101796.41;5035079;28;20115;-72
2022/10/29 08:32:13;;;;;;;26.88;14.32;;;;;;;15.78;80.74;101797.84;5033330;28;20049;-71
2022/10/29 08:34:38;;;;;;;25.30;14.52;;;;;;;15.80;81.14;101786.38;5033566;28;20049;-71
2022/10/29 08:37:04;;;;;;;28.40;15.13;;;;;;;15.82;80.69;101798.16;5033918;28;20063;-71
2022/10/29 08:39:29;;;;;;;21.45;14.35;;;;;;;15.85;80.83;101804.06;5031071;28;20044;-72
2022/10/29 08:42:03;;;;;;;25.92;14.52;;;;;;;15.89;81.15;101810.84;5032805;28;20022;-71
2022/10/29 08:44:50;;;;;;;27.00;14.93;;;;;;;15.94;80.98;101801.63;5043785;28;20086;-72
2022/10/29 08:47:19;;;;;;;26.23;14.57;;;;;;;15.95;81.18;101795.78;5072143;28;20028;-72
2022/10/29 08:50:16;;;;;;;27.08;15.63;;;;;;;16.00;80.79;101794.13;5072298;28;20028;-72
2022/10/29 08:52:44;;;;;;;23.17;14.32;;;;;;;16.01;80.99;101796.66;5056820;28;20033;-72
2022/10/29 08:55:19;;;;;;;26.17;14.23;;;;;;;16.03;81.08;101797.22;5051029;28;20103;-73
2022/10/29 08:58:02;;;;;;;24.50;14.40;;;;;;;16.06;80.70;101787.44;5052388;28;20025;-72
2022/10/29 09:00:37;;;;;;;27.80;13.60;;;;;;;16.08;81.28;101790.84;5041421;28;20043;-72
2022/10/29 09:03:09;;;;;;;23.88;13.93;;;;;;;16.08;81.04;101786.09;5036179;28;20132;-72
2022/10/29 09:05:49;;;;;;;25.20;13.27;;;;;;;16.12;80.86;101780.78;5051694;28;20110;-70
2022/10/29 09:08:20;;;;;;;22.98;13.52;;;;;;;16.13;81.37;101772.09;5040277;28;20496;-72
2022/10/29 09:10:56;;;;;;;21.85;13.70;;;;;;;16.17;81.41;101770.47;5038580;28;20033;-70
2022/10/29 09:14:01;;;;;;;23.40;12.80;;;;;;;16.23;81.42;101768.56;5040286;28;20405;-72
2022/10/29 09:16:30;;;;;;;22.55;12.57;;;;;;;16.28;81.52;101770.53;5037536;28;20072;-70
2022/10/29 09:19:26;;;;;;;21.80;13.00;;;;;;;16.33;81.23;101785.44;5035446;28;20781;-72
2022/10/29 09:21:51;;;;;;;20.85;12.00;;;;;;;16.38;80.86;101787.41;5034730;28;20037;-72
2022/10/29 09:24:38;;;;;;;19.75;12.18;;;;;;;16.40;81.20;101777.63;5037407;28;20041;-73
2022/10/29 09:27:22;;;;;;;25.17;12.55;;;;;;;16.45;80.35;101785.22;5031675;28;20503;-74
2022/10/29 09:30:15;;;;;;;16.67;10.35;;;;;;;16.48;79.88;101772.66;5051741;28;20040;-73
2022/10/29 09:32:58;;;;;;;18.52;9.98;;;;;;;16.47;80.14;101763.41;5044243;28;20038;-73
2022/10/29 09:35:36;;;;;;;19.38;10.43;;;;;;;16.49;80.02;101774.31;5030647;28;20040;-71
2022/10/29 09:38:11;;;;;;;20.20;10.30;;;;;;;16.50;79.55;101776.00;5038619;28;20484;-73
2022/10/29 09:40:39;;;;;;;16.33;9.45;;;;;;;16.51;79.43;101756.13;5042978;28;20033;-71
2022/10/29 09:43:14;;;;;;;18.92;9.25;;;;;;;16.54;79.04;101771.53;5043768;28;21093;-70
2022/10/29 09:46:01;;;;;;;16.83;8.55;;;;;;;16.56;79.25;101767.38;5048938;28;20021;-69
2022/10/29 09:48:36;;;;;;;19.45;9.02;;;;;;;16.60;79.36;101764.88;5043038;28;20037;-65
2022/10/29 09:51:07;;;;;;;18.50;9.18;;;;;;;16.64;79.26;101755.63;5047296;28;20036;-73
2022/10/29 09:53:33;;;;;;;19.08;8.98;;;;;;;16.69;79.00;101752.84;5041480;28;20029;-68
2022/10/29 09:55:58;;;;;;;17.77;8.68;;;;;;;16.75;78.82;101748.16;5051545;28;20115;-70
2022/10/29 09:58:26;;;;;;;18.35;7.55;;;;;;;16.85;79.08;101745.38;5049442;28;20131;-75
2022/10/29 10:00:53;;;;;;;13.55;7.88;;;;;;;16.92;79.06;101743.19;5045337;28;20115;-72
2022/10/29 10:03:29;;;;;;;18.17;8.20;;;;;;;17.15;79.03;101741.03;5035777;28;20381;-72
2022/10/29 10:05:58;;;;;;;19.20;7.60;;;;;;;17.42;78.15;101744.47;5030973;28;20018;-76
2022/10/29 10:08:23;;;;;;;16.88;7.65;;;;;;;17.52;76.31;101742.78;5033001;28;20065;-73
2022/10/29 10:10:55;;;;;;;15.57;6.50;;;;;;;17.55;75.88;101743.09;5033727;28;20772;-77
2022/10/29 10:13:24;;;;;;;20.08;7.38;;;;;;;17.57;74.73;101737.22;5032874;28;20025;-72
2022/10/29 10:15:55;;;;;;;19.45;6.70;;;;;;;17.60;74.59;101743.06;5046115;28;20073;-75
2022/10/29 10:18:31;;;;;;;18.38;7.20;;;;;;;17.64;74.77;101743.38;5038291;28;20153;-72
2022/10/29 10:21:31;;;;;;;18.35;6.85;;;;;;;17.69;75.09;101736.94;5033165;28;20033;-71
2022/10/29 10:23:58;;;;;;;18.63;6.88;;;;;;;17.86;74.87;101738.38;5029819;28;20124;-73
2022/10/29 10:26:30;;;;;;;18.90;6.63;;;;;;;18.05;74.86;101732.19;5036406;28;20121;-76
2022/10/29 10:29:02;;;;;;;24.02;6.55;;;;;;;18.21;73.69;101733.84;5035835;28;20185;-76
2022/10/29 10:31:28;;;;;;;12.57;5.97;;;;;;;18.37;74.14;101729.88;5036559;28;20036;-73
2022/10/29 10:33:54;;;;;;;15.77;5.45;;;;;;;18.49;71.55;101728.75;5030430;28;20033;-77
2022/10/29 10:36:23;;;;;;;17.52;6.10;;;;;;;18.54;71.63;101723.94;5030099;28;20029;-68
2022/10/29 10:38:52;;;;;;;18.58;5.68;;;;;;;18.70;70.17;101724.75;5030676;28;20717;-68
2022/10/29 10:41:24;;;;;;;16.92;5.28;;;;;;;18.87;70.34;101725.28;5038797;28;20144;-70
2022/10/29 10:43:50;;;;;;;16.88;5.72;;;;;;;19.04;68.67;101716.47;5026655;28;20053;-69
2022/10/29 10:46:24;;;;;;;19.38;5.38;;;;;;;19.25;67.85;101714.38;5037043;28;20033;-69
2022/10/29 10:48:58;;;;;;;15.07;5.22;;;;;;;19.42;67.50;101713.16;5033576;28;20033;-70
2022/10/29 10:51:27;;;;;;;15.50;5.53;;;;;;;19.51;66.57;101709.41;5031438;28;20414;-68
2022/10/29 10:53:53;;;;;;;15.13;5.30;;;;;;;19.60;66.46;101701.19;5032789;28;20025;-70
2022/10/29 10:56:20;;;;;;;19.88;5.35;;;;;;;19.75;66.44;101703.91;5029674;28;20044;-73
2022/10/29 10:58:57;;;;;;;15.75;5.03;;;;;;;19.91;65.95;101698.16;5059003;28;20150;-76
2022/10/29 11:01:29;;;;;;;16.10;5.32;;;;;;;20.02;63.55;101694.09;5029460;28;20511;-74
2022/10/29 11:04:09;;;;;;;16.20;5.63;;;;;;;20.11;64.10;101692.31;5032982;28;20116;-72
2022/10/29 11:06:39;;;;;;;13.93;5.00;;;;;;;20.22;62.60;101704.34;5044564;28;20025;-72
2022/10/29 11:09:29;;;;;;;17.48;5.65;;;;;;;20.26;64.42;101694.13;5048416;28;20025;-73
2022/10/29 11:12:05;;;;;;;11.65;4.80;;;;;;;20.28;64.09;101697.50;5050389;28;20092;-73
2022/10/29 11:14:45;;;;;;;17.52;5.13;;;;;;;20.34;64.74;101693.47;5049445;28;20021;-71
2022/10/29 11:17:25;;;;;;;11.65;4.32;;;;;;;20.40;63.51;101700.75;5047196;28;20040;-75
2022/10/29 11:19:56;;;;;;;13.82;5.03;;;;;;;20.45;61.78;101697.03;5030253;28;20029;-71
2022/10/29 11:22:51;;;;;;;16.40;5.15;;;;;;;20.57;63.22;101689.03;5029585;28;20021;-72